CheckWX is a tool to help pilots better visualize weather data.  It is not intended as a substitute for an official pre-flight weather briefing.

08:56:37 UTC

KMGM TAF
Montgomery Regional (Dannelly Field) Airport
Montgomery, Alabama, USA
KMGM 060536Z 0606/0706 VRB03KT P6SM BKN200 FM061600 16006KT P6SM BKN100 FM061800 16006KT P6SM VCSH BKN100 FM061900 VRB04KT 6SM SHRA OVC090 FM070000 00000KT P6SM VCSH BKN050 FM070300 00000KT P6SM VCSH BKN022

Dec-6@
06:00 UTC

Dec-6 @ 06:00 UTC

Dec-6@
16:00 UTC

Dec-6 @ 16:00 UTC

KMGM 060536Z 0606/0706 VRB03KT P6SM BKN200
Wind
  • Variable at 3 KTS
Cloud Levels
  • Broken at 20,000' AGL

Dec-6@
16:00 UTC

Dec-6 @ 16:00 UTC

Dec-6@
18:00 UTC

Dec-6 @ 18:00 UTC

FM061600 16006KT P6SM BKN100

From

From Standard forecast or significant change

Wind
  • 160° at 6 KTS
Cloud Levels
  • Broken at 10,000' AGL

Dec-6@
18:00 UTC

Dec-6 @ 18:00 UTC

Dec-6@
19:00 UTC

Dec-6 @ 19:00 UTC

FM061800 16006KT P6SM VCSH BKN100

From

From Standard forecast or significant change

Wind
  • 160° at 6 KTS
Cloud Levels
  • Broken at 10,000' AGL

Dec-6@
19:00 UTC

Dec-6 @ 19:00 UTC

Dec-7@
00:00 UTC

Dec-7 @ 00:00 UTC

FM061900 VRB04KT 6SM SHRA OVC090

From

From Standard forecast or significant change

Wind
  • Variable at 4 KTS
Conditions
Rain
Cloud Levels
  • Overcast at 9,000' AGL

Dec-7@
00:00 UTC

Dec-7 @ 00:00 UTC

Dec-7@
03:00 UTC

Dec-7 @ 03:00 UTC

FM070000 00000KT P6SM VCSH BKN050

From

From Standard forecast or significant change

Cloud Levels
  • Broken at 5,000' AGL

Dec-7@
03:00 UTC

Dec-7 @ 03:00 UTC

Dec-7@
06:00 UTC

Dec-7 @ 06:00 UTC

FM070300 00000KT P6SM VCSH BKN022

From

From Standard forecast or significant change

Cloud Levels
  • Broken at 2,200' AGL